Time;durP1;ratioP1;P1;durP2;ratioP2;P2;SDS_P1;SDS_P2;PMS_P1;PMS_P2;Temp;Humidity;BMP_temperature;BMP_pressure;BME280_temperature;BME280_humidity;BME280_pressure;Samples;Min_cycle;Max_cycle;Signal;HPM_P1;HPM_P2
2021/09/07 00:02:21;;;;;;;5.88;5.28;;;20.70;99.90;;;;;;5021482;28;20203;-76
2021/09/07 00:04:49;;;;;;;5.47;4.95;;;20.80;99.90;;;;;;5029651;28;20204;-77
2021/09/07 00:07:16;;;;;;;6.85;6.15;;;20.70;99.90;;;;;;5030459;28;20192;-76
2021/09/07 00:09:42;;;;;;;7.57;6.47;;;20.70;99.90;;;;;;5024381;28;20236;-76
2021/09/07 00:12:09;;;;;;;7.45;6.32;;;20.70;99.90;;;;;;5027611;28;20199;-76
2021/09/07 00:14:36;;;;;;;6.00;5.40;;;20.70;99.90;;;;;;5030077;28;20221;-76
2021/09/07 00:17:03;;;;;;;5.97;5.43;;;20.70;99.90;;;;;;5025910;28;20197;-76
2021/09/07 00:19:29;;;;;;;6.90;6.00;;;20.70;99.90;;;;;;5028406;28;20217;-76
2021/09/07 00:21:57;;;;;;;6.30;5.68;;;20.70;99.90;;;;;;5029735;28;20676;-76
2021/09/07 00:24:24;;;;;;;6.25;5.57;;;20.60;99.90;;;;;;5026498;28;20528;-76
2021/09/07 00:26:51;;;;;;;5.72;5.07;;;20.60;99.90;;;;;;5027419;28;20220;-76
2021/09/07 00:29:18;;;;;;;8.02;6.03;;;20.60;99.90;;;;;;5032711;28;20203;-76
2021/09/07 00:31:45;;;;;;;6.15;5.55;;;20.60;99.90;;;;;;5032327;28;20196;-75
2021/09/07 00:34:12;;;;;;;7.65;6.45;;;20.60;99.90;;;;;;5034581;28;20716;-77
2021/09/07 00:36:38;;;;;;;6.82;6.03;;;20.50;99.90;;;;;;5028865;28;20245;-78
2021/09/07 00:39:06;;;;;;;8.13;7.32;;;20.60;99.90;;;;;;5021281;28;20204;-78
2021/09/07 00:41:33;;;;;;;6.70;5.82;;;20.60;99.90;;;;;;5016809;28;20197;-78
2021/09/07 00:44:00;;;;;;;6.80;5.90;;;20.50;99.90;;;;;;5023116;28;20203;-78
2021/09/07 00:46:27;;;;;;;7.15;6.55;;;20.50;99.90;;;;;;5034222;28;20208;-77
2021/09/07 00:48:53;;;;;;;7.13;6.43;;;20.50;99.90;;;;;;5019718;28;20215;-78
2021/09/07 00:51:21;;;;;;;7.55;6.85;;;20.50;99.90;;;;;;5020337;28;20541;-78
2021/09/07 00:53:49;;;;;;;6.40;5.80;;;20.40;99.90;;;;;;5014259;28;20656;-77
2021/09/07 00:56:18;;;;;;;6.00;5.50;;;20.50;99.90;;;;;;5018661;28;20279;-77
2021/09/07 00:58:46;;;;;;;8.02;6.22;;;20.40;99.90;;;;;;5033186;28;20607;-77
2021/09/07 01:01:13;;;;;;;6.70;5.97;;;20.40;99.90;;;;;;5029442;28;20208;-77
2021/09/07 01:03:39;;;;;;;7.00;6.30;;;20.40;99.90;;;;;;5018642;28;20255;-77
2021/09/07 01:06:06;;;;;;;7.32;6.63;;;20.40;99.90;;;;;;5017066;28;20216;-77
2021/09/07 01:08:33;;;;;;;6.32;5.57;;;20.40;99.90;;;;;;5033148;28;20258;-77
2021/09/07 01:10:59;;;;;;;5.65;5.05;;;20.40;99.90;;;;;;5029682;28;20200;-77
2021/09/07 01:13:27;;;;;;;6.22;5.63;;;20.30;99.90;;;;;;5031896;28;20226;-77
2021/09/07 01:15:54;;;;;;;8.02;6.78;;;20.30;99.90;;;;;;5031014;28;20216;-77
2021/09/07 01:18:21;;;;;;;6.40;5.20;;;20.30;99.90;;;;;;5027746;28;20188;-77
2021/09/07 01:20:48;;;;;;;9.57;6.60;;;20.30;99.90;;;;;;5033743;28;20224;-77
2021/09/07 01:23:14;;;;;;;7.15;6.03;;;20.30;99.90;;;;;;5032654;28;20417;-76
2021/09/07 01:25:42;;;;;;;7.13;6.20;;;20.30;99.90;;;;;;5024969;28;20277;-76
2021/09/07 01:28:13;;;;;;;8.25;6.53;;;20.20;99.90;;;;;;5025714;28;20200;-78
2021/09/07 01:30:40;;;;;;;6.65;5.75;;;20.20;99.90;;;;;;5031757;28;20657;-78
2021/09/07 01:33:07;;;;;;;7.75;6.15;;;20.20;99.90;;;;;;5015357;28;20224;-77
2021/09/07 01:35:34;;;;;;;7.60;6.80;;;20.20;99.90;;;;;;5026510;28;20262;-77
2021/09/07 01:38:00;;;;;;;6.30;5.47;;;20.20;99.90;;;;;;5029229;28;20247;-78
2021/09/07 01:40:27;;;;;;;6.70;6.00;;;20.10;99.90;;;;;;5023711;28;20275;-77
2021/09/07 01:42:55;;;;;;;6.95;6.25;;;20.10;99.90;;;;;;5013251;28;20197;-77
2021/09/07 01:45:22;;;;;;;7.03;5.65;;;20.10;99.90;;;;;;5014037;28;20201;-78
2021/09/07 01:47:50;;;;;;;7.63;6.72;;;20.10;99.90;;;;;;5025604;28;20250;-78
2021/09/07 01:50:18;;;;;;;6.63;5.97;;;20.10;99.90;;;;;;5029680;28;20225;-77
2021/09/07 01:52:45;;;;;;;6.65;6.00;;;20.00;99.90;;;;;;5032757;28;20208;-77
2021/09/07 01:55:11;;;;;;;7.22;5.85;;;20.00;99.90;;;;;;5023263;28;20193;-77
2021/09/07 01:57:38;;;;;;;7.07;6.15;;;20.10;99.90;;;;;;5028793;28;20200;-77
2021/09/07 02:00:07;;;;;;;7.38;6.68;;;20.00;99.90;;;;;;5027032;28;20197;-78
2021/09/07 02:02:34;;;;;;;7.28;6.47;;;20.00;99.90;;;;;;5026553;28;20246;-78
2021/09/07 02:05:01;;;;;;;7.30;5.97;;;20.00;99.90;;;;;;5029830;28;20652;-77
2021/09/07 02:07:27;;;;;;;8.10;6.35;;;20.00;99.90;;;;;;5032612;28;20807;-77
2021/09/07 02:09:54;;;;;;;6.63;6.00;;;20.00;99.90;;;;;;5024875;28;20274;-77
2021/09/07 02:12:21;;;;;;;7.85;7.05;;;20.00;99.90;;;;;;5031377;28;20279;-77
2021/09/07 02:14:48;;;;;;;6.95;5.78;;;20.00;99.90;;;;;;5030025;28;20250;-77
2021/09/07 02:17:16;;;;;;;6.63;5.88;;;20.00;99.90;;;;;;5031590;28;20676;-77
2021/09/07 02:19:43;;;;;;;6.45;5.80;;;20.00;99.90;;;;;;5016605;28;20216;-78
2021/09/07 02:22:09;;;;;;;7.20;6.38;;;19.90;99.90;;;;;;5032843;28;20589;-81
2021/09/07 02:24:36;;;;;;;7.72;6.95;;;19.90;99.90;;;;;;5027729;28;20224;-77
2021/09/07 02:27:03;;;;;;;8.15;6.82;;;19.90;99.90;;;;;;5019463;28;20225;-78
2021/09/07 02:29:30;;;;;;;6.68;5.97;;;19.90;99.90;;;;;;5022199;28;20196;-78
2021/09/07 02:31:56;;;;;;;6.10;5.50;;;19.90;99.90;;;;;;5035404;28;20254;-79
2021/09/07 02:34:24;;;;;;;7.40;6.05;;;19.90;99.90;;;;;;5033036;28;20226;-78
2021/09/07 02:36:51;;;;;;;8.05;6.20;;;19.80;99.90;;;;;;5025928;28;20208;-78
2021/09/07 02:39:18;;;;;;;8.68;7.78;;;19.80;99.90;;;;;;5030605;28;20266;-78
2021/09/07 02:41:44;;;;;;;7.93;6.90;;;19.80;99.90;;;;;;5034462;28;20511;-77
2021/09/07 02:44:11;;;;;;;8.32;6.50;;;19.80;99.90;;;;;;5031058;28;20201;-78
2021/09/07 02:46:38;;;;;;;7.78;7.03;;;19.80;99.90;;;;;;5023877;28;20226;-78
2021/09/07 02:49:05;;;;;;;7.28;6.65;;;19.80;99.90;;;;;;5029638;28;20192;-77
2021/09/07 02:51:33;;;;;;;6.75;6.07;;;19.80;99.90;;;;;;5033846;28;20199;-77
2021/09/07 02:53:59;;;;;;;7.05;6.32;;;19.80;99.90;;;;;;5032185;28;20188;-78
2021/09/07 02:56:26;;;;;;;8.45;7.05;;;19.80;99.90;;;;;;5032436;28;20196;-78
2021/09/07 02:58:53;;;;;;;9.30;7.15;;;19.70;99.90;;;;;;5028546;28;20200;-77
2021/09/07 03:01:19;;;;;;;6.28;5.68;;;19.80;99.90;;;;;;5023802;28;20279;-77
2021/09/07 03:03:46;;;;;;;8.25;7.45;;;19.70;99.90;;;;;;5013866;28;20255;-77
2021/09/07 03:06:13;;;;;;;6.75;6.10;;;19.70;99.90;;;;;;5031749;28;20677;-78
2021/09/07 03:08:41;;;;;;;7.88;7.13;;;19.70;99.90;;;;;;5019399;28;20206;-79
2021/09/07 03:11:08;;;;;;;7.90;6.20;;;19.70;99.90;;;;;;5020366;28;20196;-78
2021/09/07 03:13:35;;;;;;;8.13;7.25;;;19.70;99.90;;;;;;5025752;28;20263;-77
2021/09/07 03:16:01;;;;;;;6.50;5.90;;;19.70;99.90;;;;;;5030480;28;20557;-77
2021/09/07 03:18:29;;;;;;;7.05;5.95;;;19.60;99.90;;;;;;5026811;28;20250;-77
2021/09/07 03:20:56;;;;;;;7.90;6.65;;;19.70;99.90;;;;;;5030858;28;20588;-77
2021/09/07 03:23:23;;;;;;;8.18;7.10;;;19.60;99.90;;;;;;5031324;28;20204;-77
2021/09/07 03:25:51;;;;;;;8.10;7.30;;;19.60;99.90;;;;;;5029637;28;20196;-78
2021/09/07 03:28:17;;;;;;;7.18;6.47;;;19.60;99.90;;;;;;5030760;28;20617;-77
2021/09/07 03:30:44;;;;;;;5.88;5.28;;;19.60;99.90;;;;;;5030028;28;20247;-78
2021/09/07 03:33:11;;;;;;;6.20;5.60;;;19.60;99.90;;;;;;5030424;28;20266;-77
2021/09/07 03:35:37;;;;;;;6.13;5.25;;;19.50;99.90;;;;;;5028427;28;20200;-77
2021/09/07 03:38:04;;;;;;;7.47;6.72;;;19.50;99.90;;;;;;5018531;28;20528;-77
2021/09/07 03:40:31;;;;;;;6.40;5.75;;;19.50;99.90;;;;;;5011563;28;20201;-77
2021/09/07 03:42:59;;;;;;;6.70;6.00;;;19.50;99.90;;;;;;5021903;28;21008;-77
2021/09/07 03:45:26;;;;;;;7.75;6.30;;;19.50;99.90;;;;;;5024397;28;20269;-77
2021/09/07 03:47:52;;;;;;;7.45;6.75;;;19.50;99.90;;;;;;5030218;28;20224;-78
2021/09/07 03:50:19;;;;;;;11.20;6.97;;;19.50;99.90;;;;;;5030756;28;20246;-76
2021/09/07 03:52:46;;;;;;;8.35;7.18;;;19.50;99.90;;;;;;5030716;28;20192;-77
2021/09/07 03:55:14;;;;;;;8.27;6.72;;;19.50;99.90;;;;;;5023772;28;20601;-77
2021/09/07 03:57:41;;;;;;;7.63;6.72;;;19.40;99.90;;;;;;5031313;28;20657;-77
2021/09/07 04:00:10;;;;;;;7.60;6.80;;;19.40;99.90;;;;;;5022236;28;20209;-77
2021/09/07 04:02:38;;;;;;;7.38;6.63;;;19.40;99.90;;;;;;5015342;28;20201;-76
2021/09/07 04:05:05;;;;;;;7.40;6.53;;;19.40;99.90;;;;;;5026394;28;20741;-77
2021/09/07 04:07:32;;;;;;;6.32;5.63;;;19.40;99.90;;;;;;5017849;28;20231;-77
2021/09/07 04:09:59;;;;;;;7.38;6.68;;;19.40;99.90;;;;;;5026945;28;20208;-77
2021/09/07 04:12:26;;;;;;;8.98;6.53;;;19.40;99.90;;;;;;5030849;28;20189;-77
2021/09/07 04:14:52;;;;;;;7.80;7.00;;;19.40;99.90;;;;;;5024815;28;20246;-78
2021/09/07 04:17:21;;;;;;;7.05;6.35;;;19.40;99.90;;;;;;5027945;28;20215;-77
2021/09/07 04:19:47;;;;;;;7.32;6.65;;;19.40;99.90;;;;;;5023620;28;20216;-77
2021/09/07 04:22:14;;;;;;;6.10;5.53;;;19.40;99.90;;;;;;5034761;28;20196;-77
2021/09/07 04:24:41;;;;;;;6.93;5.90;;;19.30;99.90;;;;;;5028600;28;20197;-75
2021/09/07 04:27:07;;;;;;;6.93;6.03;;;19.40;99.90;;;;;;5024136;28;20208;-76
2021/09/07 04:29:34;;;;;;;8.07;6.53;;;19.30;99.90;;;;;;5031188;28;20604;-77
2021/09/07 04:32:01;;;;;;;7.40;6.05;;;19.30;99.90;;;;;;5033823;28;20262;-76
2021/09/07 04:34:29;;;;;;;9.85;7.10;;;19.30;99.90;;;;;;5030688;28;20204;-76
2021/09/07 04:36:56;;;;;;;6.68;5.90;;;19.30;99.90;;;;;;5032719;28;20196;-76
2021/09/07 04:39:22;;;;;;;7.32;6.63;;;19.30;99.90;;;;;;5028984;28;20657;-76
2021/09/07 04:41:49;;;;;;;8.18;7.22;;;19.30;99.90;;;;;;5030885;28;20203;-77
2021/09/07 04:44:19;;;;;;;7.50;6.70;;;19.30;99.90;;;;;;5032551;28;20192;-76
2021/09/07 04:46:46;;;;;;;7.07;6.40;;;19.30;99.90;;;;;;5031027;28;20510;-76
2021/09/07 04:49:13;;;;;;;7.82;6.30;;;19.20;99.90;;;;;;5029399;28;20196;-77
2021/09/07 04:51:41;;;;;;;7.55;6.78;;;19.30;99.90;;;;;;5029261;28;20258;-76
2021/09/07 04:54:07;;;;;;;7.78;5.93;;;19.30;99.90;;;;;;5029925;28;20193;-76
2021/09/07 04:56:34;;;;;;;8.27;7.38;;;19.30;99.90;;;;;;5031565;28;20291;-76
2021/09/07 04:59:01;;;;;;;7.53;6.70;;;19.30;99.90;;;;;;5014444;28;20189;-76
2021/09/07 05:01:27;;;;;;;5.50;4.95;;;19.20;99.90;;;;;;5027638;28;20246;-76
2021/09/07 05:03:54;;;;;;;7.72;6.70;;;19.20;99.90;;;;;;5031006;28;20608;-76
2021/09/07 05:06:21;;;;;;;8.02;7.20;;;19.20;99.90;;;;;;5014510;28;20193;-76
2021/09/07 05:08:49;;;;;;;6.32;5.70;;;19.20;99.90;;;;;;5014033;28;20228;-77
2021/09/07 05:11:15;;;;;;;9.00;6.93;;;19.20;99.90;;;;;;5015222;28;20645;-78
2021/09/07 05:13:42;;;;;;;6.05;5.55;;;19.20;99.90;;;;;;5022014;28;20662;-77
2021/09/07 05:16:09;;;;;;;6.93;6.32;;;19.10;99.90;;;;;;5014561;28;20201;-77
2021/09/07 05:18:35;;;;;;;7.35;6.55;;;19.10;99.90;;;;;;5021838;28;20209;-77
2021/09/07 05:21:02;;;;;;;7.95;6.68;;;19.10;99.90;;;;;;5023502;28;20282;-77
2021/09/07 05:23:29;;;;;;;11.13;7.07;;;19.10;99.90;;;;;;5025960;28;20200;-77
2021/09/07 05:25:57;;;;;;;9.07;7.00;;;19.10;99.90;;;;;;5021273;28;20199;-77
2021/09/07 05:28:23;;;;;;;7.72;6.90;;;19.10;99.90;;;;;;5032910;28;20235;-77
2021/09/07 05:30:50;;;;;;;6.28;5.68;;;19.10;99.90;;;;;;5019313;28;20603;-76
2021/09/07 05:33:17;;;;;;;8.65;6.30;;;19.00;99.90;;;;;;5025192;28;20246;-77
2021/09/07 05:35:44;;;;;;;7.03;6.32;;;19.10;99.90;;;;;;5014343;28;20196;-77
2021/09/07 05:38:10;;;;;;;7.13;6.43;;;19.00;99.90;;;;;;5030614;28;20208;-77
2021/09/07 05:40:37;;;;;;;10.90;6.18;;;19.00;99.90;;;;;;5017539;28;20204;-77
2021/09/07 05:43:05;;;;;;;8.63;6.85;;;19.00;99.90;;;;;;5013250;28;20197;-77
2021/09/07 05:45:32;;;;;;;6.95;6.05;;;19.00;99.90;;;;;;5029325;28;20277;-77
2021/09/07 05:47:59;;;;;;;8.75;6.93;;;19.00;99.90;;;;;;5032022;28;20625;-77
2021/09/07 05:50:25;;;;;;;7.93;6.60;;;19.00;99.90;;;;;;5024777;28;20192;-77
2021/09/07 05:52:52;;;;;;;8.27;6.20;;;19.00;99.90;;;;;;5032748;28;20238;-77
2021/09/07 05:55:19;;;;;;;7.05;5.95;;;19.00;99.90;;;;;;5023078;28;20205;-77
2021/09/07 05:57:46;;;;;;;7.95;6.45;;;19.00;99.90;;;;;;5025644;28;20200;-77
2021/09/07 06:00:15;;;;;;;6.70;6.00;;;19.00;99.90;;;;;;5032898;28;20254;-77
2021/09/07 06:02:42;;;;;;;8.50;7.60;;;19.00;99.90;;;;;;5025421;28;20251;-77
2021/09/07 06:05:09;;;;;;;7.60;6.28;;;19.00;99.90;;;;;;5012998;28;20280;-75
2021/09/07 06:07:36;;;;;;;9.38;6.88;;;19.00;99.90;;;;;;5031458;28;20299;-76
2021/09/07 06:10:04;;;;;;;7.50;5.93;;;19.00;99.90;;;;;;5030361;28;20200;-75
2021/09/07 06:12:31;;;;;;;7.95;6.88;;;19.00;99.90;;;;;;5023709;28;20653;-75
2021/09/07 06:14:58;;;;;;;8.77;7.88;;;19.00;99.90;;;;;;5030323;28;20242;-75
2021/09/07 06:17:26;;;;;;;7.80;6.93;;;19.00;99.90;;;;;;5013854;28;20200;-77
2021/09/07 06:19:53;;;;;;;9.43;7.07;;;18.90;99.90;;;;;;5017171;28;20615;-76
2021/09/07 06:22:19;;;;;;;7.90;7.10;;;19.00;99.90;;;;;;5031844;28;20627;-75
2021/09/07 06:24:46;;;;;;;8.20;7.15;;;19.00;99.90;;;;;;5028389;28;20196;-76
2021/09/07 06:27:13;;;;;;;7.13;6.45;;;19.00;99.90;;;;;;5012307;28;20270;-76
2021/09/07 06:29:40;;;;;;;7.00;6.18;;;18.90;99.90;;;;;;5019138;28;20258;-77
2021/09/07 06:32:07;;;;;;;9.02;7.47;;;19.00;99.90;;;;;;5031379;28;20196;-77
2021/09/07 06:34:35;;;;;;;7.75;6.40;;;18.90;99.90;;;;;;5016857;28;20204;-76
2021/09/07 06:37:02;;;;;;;7.57;6.85;;;18.90;99.90;;;;;;5030681;28;20200;-76
2021/09/07 06:39:29;;;;;;;7.15;6.45;;;18.90;99.90;;;;;;5027160;28;20192;-76
2021/09/07 06:41:56;;;;;;;7.60;6.90;;;18.90;99.90;;;;;;5023972;28;20201;-75
2021/09/07 06:44:22;;;;;;;7.85;6.95;;;19.00;99.90;;;;;;5028595;28;20196;-75
2021/09/07 06:46:49;;;;;;;9.07;6.85;;;19.00;99.90;;;;;;5028847;28;20204;-75
2021/09/07 06:49:16;;;;;;;8.20;7.10;;;18.90;99.90;;;;;;5031439;28;20696;-76
2021/09/07 06:51:44;;;;;;;9.52;7.90;;;19.00;99.90;;;;;;5028490;28;20196;-76
2021/09/07 06:54:10;;;;;;;8.57;7.57;;;19.00;99.90;;;;;;5018506;28;20235;-75
2021/09/07 06:56:37;;;;;;;12.23;9.95;;;19.00;99.90;;;;;;5011977;28;20193;-76
2021/09/07 06:59:04;;;;;;;10.50;8.82;;;19.00;99.90;;;;;;5027536;28;20600;-76
2021/09/07 07:01:30;;;;;;;9.88;8.70;;;18.90;99.90;;;;;;5017071;28;20200;-75
2021/09/07 07:03:57;;;;;;;8.93;7.80;;;19.00;99.90;;;;;;5016404;28;20310;-75
2021/09/07 07:06:24;;;;;;;9.55;8.20;;;18.90;99.90;;;;;;5026686;28;20246;-75
2021/09/07 07:08:52;;;;;;;9.15;7.57;;;19.00;99.90;;;;;;5026037;28;20226;-75
2021/09/07 07:11:18;;;;;;;8.57;7.57;;;18.90;99.90;;;;;;5030568;28;20436;-81
2021/09/07 07:13:45;;;;;;;10.32;8.73;;;19.00;99.90;;;;;;5045619;28;20219;-81
2021/09/07 07:16:12;;;;;;;10.40;9.27;;;19.00;99.90;;;;;;5040584;28;20211;-80
2021/09/07 07:18:38;;;;;;;9.40;7.95;;;19.00;99.90;;;;;;5044809;28;20204;-80
2021/09/07 07:21:05;;;;;;;9.90;8.68;;;19.00;99.90;;;;;;5048300;28;20243;-81
2021/09/07 07:23:32;;;;;;;8.77;7.88;;;18.90;99.90;;;;;;5049009;28;20199;-80
2021/09/07 07:26:00;;;;;;;9.02;8.07;;;19.00;99.90;;;;;;5040094;28;20250;-78
2021/09/07 07:28:27;;;;;;;10.57;7.60;;;19.00;99.90;;;;;;5047596;28;20219;-80
2021/09/07 07:30:53;;;;;;;9.20;7.63;;;19.00;99.90;;;;;;5048223;28;20192;-81
2021/09/07 07:33:20;;;;;;;13.02;8.70;;;19.00;99.90;;;;;;5027827;28;20208;-79
2021/09/07 07:35:47;;;;;;;9.25;8.10;;;19.00;99.90;;;;;;5027875;28;20197;-79
2021/09/07 07:38:13;;;;;;;11.75;8.82;;;19.00;99.90;;;;;;5035433;28;20207;-80
2021/09/07 07:40:40;;;;;;;8.88;7.68;;;19.10;99.90;;;;;;5030084;28;20205;-80
2021/09/07 07:43:08;;;;;;;10.75;9.25;;;19.00;99.90;;;;;;5041849;28;20254;-80
2021/09/07 07:45:35;;;;;;;9.77;8.45;;;19.10;99.90;;;;;;5030892;28;20196;-81
2021/09/07 07:48:02;;;;;;;8.57;7.72;;;19.10;99.90;;;;;;5025885;28;20282;-80
2021/09/07 07:50:29;;;;;;;11.18;7.93;;;19.10;99.90;;;;;;5040970;28;20208;-80
2021/09/07 07:52:58;;;;;;;10.45;8.23;;;19.10;99.90;;;;;;5033122;28;20196;-80
2021/09/07 07:55:24;;;;;;;9.57;8.23;;;19.10;99.90;;;;;;5035598;28;20199;-81
2021/09/07 07:57:51;;;;;;;10.15;7.88;;;19.10;99.90;;;;;;5037570;28;20583;-80
2021/09/07 08:00:19;;;;;;;8.60;7.38;;;19.10;99.90;;;;;;5034291;28;20613;-80
2021/09/07 08:02:46;;;;;;;10.38;8.30;;;19.10;99.90;;;;;;5035972;28;20200;-80
2021/09/07 08:05:13;;;;;;;11.93;7.60;;;19.20;99.90;;;;;;5031865;28;20196;-80
2021/09/07 08:07:39;;;;;;;10.57;7.70;;;19.20;99.90;;;;;;5036777;28;20200;-80
2021/09/07 08:10:07;;;;;;;9.68;8.05;;;19.20;99.90;;;;;;5044443;28;20584;-79
2021/09/07 08:12:34;;;;;;;8.30;7.45;;;19.20;99.90;;;;;;5034387;28;20196;-80
2021/09/07 08:15:01;;;;;;;11.10;9.20;;;19.20;99.90;;;;;;5035501;28;20203;-79
2021/09/07 08:17:29;;;;;;;8.40;7.38;;;19.20;99.90;;;;;;5033417;28;20597;-80
2021/09/07 08:19:55;;;;;;;9.80;7.72;;;19.30;99.90;;;;;;5037949;28;20640;-80
2021/09/07 08:22:23;;;;;;;9.50;7.78;;;19.30;99.90;;;;;;5042718;28;20204;-80
2021/09/07 08:24:50;;;;;;;9.70;8.02;;;19.30;99.90;;;;;;5035071;28;20247;-80
2021/09/07 08:27:17;;;;;;;9.50;8.02;;;19.30;99.90;;;;;;5043332;28;20200;-79
2021/09/07 08:29:44;;;;;;;8.82;7.90;;;19.30;99.90;;;;;;5036523;28;20228;-79
2021/09/07 08:32:11;;;;;;;8.00;7.15;;;19.30;99.90;;;;;;5034800;28;20204;-80
2021/09/07 08:34:39;;;;;;;10.57;8.75;;;19.40;99.90;;;;;;5045634;28;20196;-80
2021/09/07 08:37:06;;;;;;;9.90;8.55;;;19.30;99.90;;;;;;5047587;28;20200;-80
2021/09/07 08:39:32;;;;;;;8.85;7.95;;;19.40;99.90;;;;;;5042963;28;20216;-80
2021/09/07 08:42:00;;;;;;;13.10;8.25;;;19.40;99.90;;;;;;5038905;28;20364;-80
2021/09/07 08:44:27;;;;;;;8.25;7.45;;;19.40;99.90;;;;;;5036985;28;20201;-80
2021/09/07 08:46:54;;;;;;;12.30;8.05;;;19.50;99.90;;;;;;5035773;28;20200;-80
2021/09/07 08:49:21;;;;;;;9.88;8.88;;;19.50;99.90;;;;;;5049251;28;20216;-81
2021/09/07 08:51:49;;;;;;;10.55;8.82;;;19.50;99.90;;;;;;5050416;28;20719;-81
2021/09/07 08:54:16;;;;;;;9.00;8.10;;;19.50;99.90;;;;;;5040943;28;20272;-80
2021/09/07 08:56:43;;;;;;;8.98;8.00;;;19.60;99.90;;;;;;5048467;28;20563;-81
2021/09/07 08:59:10;;;;;;;14.75;8.60;;;19.60;99.90;;;;;;5048183;28;20223;-80
2021/09/07 09:01:39;;;;;;;16.13;9.55;;;19.60;99.90;;;;;;5044232;28;20208;-80
2021/09/07 09:04:06;;;;;;;7.85;7.03;;;19.70;99.90;;;;;;5040501;28;20249;-80
2021/09/07 09:06:32;;;;;;;10.77;8.27;;;19.70;99.90;;;;;;5029922;28;20204;-80
2021/09/07 09:09:06;;;;;;;8.55;7.75;;;19.70;99.90;;;;;;5043781;28;20220;-80
2021/09/07 09:11:51;;;;;;;7.65;6.95;;;19.70;99.90;;;;;;5039938;28;20207;-80
2021/09/07 09:14:40;;;;;;;12.10;8.40;;;19.80;99.90;;;;;;5043849;28;20196;-79
2021/09/07 09:17:28;;;;;;;9.65;7.85;;;19.80;99.90;;;;;;5029322;28;20201;-81
2021/09/07 09:19:58;;;;;;;8.95;8.05;;;19.90;99.90;;;;;;5033227;28;20223;-80
2021/09/07 09:22:44;;;;;;;11.10;9.35;;;20.00;99.90;;;;;;5047918;28;20291;-80
2021/09/07 09:25:26;;;;;;;9.40;7.53;;;20.00;99.90;;;;;;5036409;28;20200;-80
2021/09/07 09:28:09;;;;;;;10.02;8.65;;;20.00;99.90;;;;;;5046924;28;20207;-80
2021/09/07 09:30:38;;;;;;;10.68;9.40;;;20.10;99.90;;;;;;5034635;28;20412;-80
2021/09/07 09:33:05;;;;;;;9.07;7.70;;;20.20;99.90;;;;;;5041080;28;20218;-80
2021/09/07 09:35:43;;;;;;;13.00;8.93;;;20.20;99.90;;;;;;5043233;28;20236;-80
2021/09/07 09:38:10;;;;;;;11.80;9.68;;;20.30;99.90;;;;;;5049393;28;20197;-80
2021/09/07 09:40:38;;;;;;;10.32;9.15;;;20.30;99.90;;;;;;5035559;28;20203;-80
2021/09/07 09:43:23;;;;;;;11.18;9.10;;;20.40;99.90;;;;;;5048489;28;20196;-80
2021/09/07 09:45:51;;;;;;;10.77;9.45;;;20.40;99.90;;;;;;5033924;28;20662;-80
2021/09/07 09:48:22;;;;;;;8.77;7.70;;;20.50;99.90;;;;;;5042811;28;20204;-82
2021/09/07 09:50:51;;;;;;;10.98;7.90;;;20.50;99.90;;;;;;5036048;28;20212;-81
2021/09/07 09:53:19;;;;;;;16.58;9.05;;;20.60;99.90;;;;;;5045715;28;20203;-79
2021/09/07 09:55:48;;;;;;;13.75;10.50;;;20.60;99.90;;;;;;5029753;28;20250;-75
2021/09/07 09:58:16;;;;;;;11.70;8.55;;;20.60;99.90;;;;;;5022385;28;20219;-76
2021/09/07 10:00:44;;;;;;;14.75;9.45;;;20.60;99.90;;;;;;5023006;28;20216;-76
2021/09/07 10:03:12;;;;;;;13.07;8.35;;;20.70;99.90;;;;;;5014841;28;20284;-76
2021/09/07 10:05:40;;;;;;;12.73;10.27;;;20.70;99.90;;;;;;5017207;28;20291;-77
2021/09/07 10:08:08;;;;;;;11.15;8.55;;;20.70;99.90;;;;;;5028728;28;20709;-77
2021/09/07 10:10:36;;;;;;;11.75;8.77;;;20.70;99.90;;;;;;5026761;28;20715;-77
2021/09/07 10:13:09;;;;;;;9.80;8.35;;;20.80;99.90;;;;;;5032391;28;20201;-77
2021/09/07 10:15:44;;;;;;;9.93;7.65;;;20.80;99.90;;;;;;5022488;28;20201;-77
2021/09/07 10:18:33;;;;;;;7.93;7.13;;;20.90;99.90;;;;;;5021456;28;20204;-78
2021/09/07 10:21:10;;;;;;;9.63;8.73;;;20.90;99.90;;;;;;5016717;28;20219;-76
2021/09/07 10:23:57;;;;;;;8.98;7.80;;;20.90;99.90;;;;;;5027392;28;20192;-78
2021/09/07 10:26:53;;;;;;;10.25;8.90;;;20.90;99.90;;;;;;5012848;28;20209;-76
2021/09/07 10:29:42;;;;;;;10.93;8.82;;;21.00;99.90;;;;;;5031614;28;20220;-76
2021/09/07 10:32:39;;;;;;;13.70;9.30;;;21.00;99.90;;;;;;5030162;28;20254;-75
2021/09/07 10:35:11;;;;;;;10.73;8.85;;;21.00;99.90;;;;;;4969068;28;20202;-75
2021/09/07 10:38:08;;;;;;;10.45;7.80;;;21.00;99.90;;;;;;5020472;28;20200;-77
2021/09/07 10:40:51;;;;;;;7.95;7.15;;;21.00;99.90;;;;;;5017787;28;20586;-77
2021/09/07 10:43:50;;;;;;;10.93;7.53;;;21.10;99.90;;;;;;5022413;28;20188;-77
2021/09/07 10:46:48;;;;;;;11.73;8.40;;;21.10;99.90;;;;;;5030396;28;20265;-76
2021/09/07 10:49:24;;;;;;;9.65;7.97;;;21.10;99.90;;;;;;5019974;28;20240;-77
2021/09/07 10:52:14;;;;;;;11.73;8.90;;;21.10;99.90;;;;;;5025629;28;20198;-77
2021/09/07 10:54:56;;;;;;;7.70;6.90;;;21.10;99.90;;;;;;5024586;28;20259;-77
2021/09/07 10:57:45;;;;;;;8.70;6.80;;;21.10;99.90;;;;;;5031661;28;20231;-77
2021/09/07 11:00:29;;;;;;;8.65;7.32;;;21.10;99.90;;;;;;5018897;28;20246;-77
2021/09/07 11:02:58;;;;;;;10.40;7.72;;;21.10;99.90;;;;;;5024929;28;20235;-77
2021/09/07 11:05:41;;;;;;;7.32;6.63;;;21.10;99.90;;;;;;5029854;28;20192;-76
2021/09/07 11:08:09;;;;;;;8.63;7.07;;;21.10;99.90;;;;;;5029122;28;20192;-76
2021/09/07 11:10:38;;;;;;;7.10;6.00;;;21.20;99.90;;;;;;5028299;28;20512;-76
2021/09/07 11:13:06;;;;;;;7.85;7.05;;;21.20;99.90;;;;;;5029169;28;20207;-75
2021/09/07 11:15:34;;;;;;;8.70;6.82;;;21.10;99.90;;;;;;5029426;28;20562;-75
2021/09/07 11:18:04;;;;;;;7.45;6.05;;;21.10;99.90;;;;;;5031130;28;20204;-75
2021/09/07 11:20:33;;;;;;;7.03;6.15;;;21.20;99.90;;;;;;5010661;28;20694;-76
2021/09/07 11:23:09;;;;;;;9.10;6.43;;;21.20;99.90;;;;;;5016366;28;20271;-75
2021/09/07 11:25:36;;;;;;;6.65;5.95;;;21.10;99.90;;;;;;5017686;28;20665;-76
2021/09/07 11:28:05;;;;;;;7.40;6.27;;;21.20;99.90;;;;;;5031240;28;20675;-76
2021/09/07 11:30:34;;;;;;;9.93;6.95;;;21.20;99.90;;;;;;5028094;28;20486;-75
2021/09/07 11:33:05;;;;;;;7.47;6.38;;;21.20;99.90;;;;;;5028158;28;20196;-76
2021/09/07 11:35:34;;;;;;;7.93;6.55;;;21.20;99.90;;;;;;5031699;28;20208;-76
2021/09/07 11:38:03;;;;;;;8.75;6.57;;;21.20;99.90;;;;;;5030911;28;20669;-75
2021/09/07 11:40:31;;;;;;;8.52;6.13;;;21.20;99.90;;;;;;5028806;28;20200;-75
2021/09/07 11:42:58;;;;;;;7.32;6.47;;;21.30;99.90;;;;;;5030277;28;20192;-76
2021/09/07 11:45:27;;;;;;;6.15;5.25;;;21.30;99.90;;;;;;5030154;28;20234;-76
2021/09/07 11:47:54;;;;;;;7.32;6.63;;;21.30;99.90;;;;;;5013553;28;20593;-77
2021/09/07 11:50:27;;;;;;;7.03;6.03;;;21.30;99.90;;;;;;5027603;28;20224;-76
2021/09/07 11:52:54;;;;;;;9.03;6.13;;;21.40;99.90;;;;;;5027635;28;20526;-77
2021/09/07 11:55:50;;;;;;;7.68;6.10;;;21.30;99.90;;;;;;5025069;28;20521;-76
2021/09/07 11:58:29;;;;;;;8.07;6.80;;;21.40;99.90;;;;;;5017095;28;20290;-77
2021/09/07 12:01:10;;;;;;;8.23;6.13;;;21.40;99.90;;;;;;5030904;28;20461;-76
2021/09/07 12:03:46;;;;;;;7.43;6.38;;;21.40;99.90;;;;;;5025605;28;20192;-77
2021/09/07 12:06:16;;;;;;;9.25;6.60;;;21.40;99.90;;;;;;5029080;28;20564;-77
2021/09/07 12:08:45;;;;;;;8.32;6.18;;;21.40;99.90;;;;;;5030412;28;20573;-75
2021/09/07 12:11:15;;;;;;;8.80;7.35;;;21.40;99.90;;;;;;5019644;28;20262;-77
2021/09/07 12:13:42;;;;;;;6.65;5.40;;;21.40;99.90;;;;;;5030469;28;20650;-76
2021/09/07 12:16:09;;;;;;;7.10;6.40;;;21.40;99.90;;;;;;5030608;28;20557;-77
2021/09/07 12:18:38;;;;;;;7.20;6.28;;;21.40;99.90;;;;;;5016156;28;20200;-76
2021/09/07 12:21:24;;;;;;;7.35;6.40;;;21.40;99.90;;;;;;5023438;28;20219;-77
2021/09/07 12:23:54;;;;;;;6.15;5.55;;;21.40;99.90;;;;;;5033521;28;20211;-77
2021/09/07 12:26:36;;;;;;;7.50;6.60;;;21.50;99.90;;;;;;5033917;28;20609;-76
2021/09/07 12:29:14;;;;;;;7.03;5.93;;;21.40;99.90;;;;;;5034225;28;20842;-76
2021/09/07 12:31:41;;;;;;;7.82;6.78;;;21.50;99.90;;;;;;5018260;28;20196;-77
2021/09/07 12:34:08;;;;;;;7.78;6.97;;;21.50;99.90;;;;;;5026822;28;20196;-77
2021/09/07 12:36:44;;;;;;;7.75;6.13;;;21.50;99.90;;;;;;5033311;28;20273;-76
2021/09/07 12:39:13;;;;;;;7.47;6.57;;;21.50;99.90;;;;;;5031971;28;20295;-76
2021/09/07 12:41:40;;;;;;;6.95;5.65;;;21.50;99.90;;;;;;5030413;28;20580;-76
2021/09/07 12:44:07;;;;;;;6.88;6.15;;;21.50;99.90;;;;;;5034413;28;20200;-76
2021/09/07 12:46:35;;;;;;;7.10;6.40;;;21.50;99.90;;;;;;5033214;28;20205;-76
2021/09/07 12:49:01;;;;;;;6.67;5.97;;;21.50;99.90;;;;;;5032984;28;20290;-74
2021/09/07 12:51:28;;;;;;;7.70;5.90;;;21.50;99.90;;;;;;5033026;28;20462;-76
2021/09/07 12:53:59;;;;;;;7.60;5.00;;;21.50;99.90;;;;;;5031523;28;20458;-76
2021/09/07 12:56:31;;;;;;;7.85;5.47;;;21.50;99.90;;;;;;5030763;28;20446;-76